createdAt,value
2017-11-10T00:00:07.814Z,43.90
2017-11-10T00:02:35.643Z,41.90
2017-11-10T00:05:03.460Z,46.20
2017-11-10T00:07:31.312Z,33.73
2017-11-10T00:09:59.133Z,40.37
2017-11-10T00:12:26.983Z,41.10
2017-11-10T00:14:54.801Z,37.23
2017-11-10T00:17:22.682Z,37.60
2017-11-10T00:19:50.483Z,42.47
2017-11-10T00:22:18.314Z,32.80
2017-11-10T00:24:46.172Z,35.90
2017-11-10T00:27:13.995Z,42.07
2017-11-10T00:29:41.836Z,38.27
2017-11-10T00:32:09.682Z,38.70
2017-11-10T00:34:37.526Z,40.70
2017-11-10T00:37:05.398Z,41.10
2017-11-10T00:39:33.269Z,34.37
2017-11-10T00:42:01.085Z,34.67
2017-11-10T00:44:28.925Z,34.00
2017-11-10T00:46:56.769Z,30.77
2017-11-10T00:49:24.606Z,33.00
2017-11-10T00:51:52.422Z,36.90
2017-11-10T00:54:20.261Z,28.97
2017-11-10T00:56:48.077Z,39.03
2017-11-10T00:59:15.915Z,35.10
2017-11-10T01:01:43.772Z,38.80
2017-11-10T01:04:11.601Z,33.00
2017-11-10T01:06:39.451Z,40.90
2017-11-10T01:09:07.311Z,41.80
2017-11-10T01:11:35.187Z,40.97
2017-11-10T01:14:03.026Z,41.23
2017-11-10T01:16:30.870Z,39.63
2017-11-10T01:18:58.710Z,41.60
2017-11-10T01:21:26.533Z,44.00
2017-11-10T01:23:54.374Z,41.07
2017-11-10T01:26:22.210Z,44.63
2017-11-10T01:28:50.026Z,42.43
2017-11-10T01:31:17.853Z,42.67
2017-11-10T01:33:45.690Z,35.77
2017-11-10T01:36:13.546Z,41.53
2017-11-10T01:38:41.378Z,30.77
2017-11-10T01:41:09.238Z,40.50
2017-11-10T01:43:37.070Z,38.30
2017-11-10T01:46:04.913Z,36.43
2017-11-10T01:48:38.894Z,34.67
2017-11-10T01:51:06.721Z,31.70
2017-11-10T01:53:34.553Z,35.97
2017-11-10T01:56:02.421Z,32.63
2017-11-10T01:58:30.315Z,29.53
2017-11-10T02:00:58.137Z,29.10
2017-11-10T02:03:26.014Z,31.83
2017-11-10T02:05:53.845Z,29.40
2017-11-10T02:08:21.689Z,31.40
2017-11-10T02:10:49.510Z,33.77
2017-11-10T02:13:17.349Z,27.87
2017-11-10T02:15:45.173Z,22.40
2017-11-10T02:18:12.992Z,30.30
2017-11-10T02:20:40.866Z,28.43
2017-11-10T02:23:08.692Z,29.27
2017-11-10T02:25:36.532Z,30.47
2017-11-10T02:28:04.377Z,30.00
2017-11-10T02:30:32.191Z,30.43
2017-11-10T02:33:00.027Z,29.60
2017-11-10T02:35:27.850Z,27.00
2017-11-10T02:37:55.673Z,28.67
2017-11-10T02:40:23.497Z,32.13
2017-11-10T02:42:51.345Z,30.70
2017-11-10T02:45:19.173Z,32.40
2017-11-10T02:47:47.009Z,31.83
2017-11-10T02:50:14.854Z,35.50
2017-11-10T02:52:42.698Z,35.90
2017-11-10T02:55:10.530Z,34.33
2017-11-10T02:57:38.354Z,29.93
2017-11-10T03:00:06.174Z,37.77
2017-11-10T03:02:34.050Z,35.97
2017-11-10T03:05:02.001Z,34.03
2017-11-10T03:07:29.835Z,33.90
2017-11-10T03:09:57.658Z,37.37
2017-11-10T03:12:25.478Z,32.10
2017-11-10T03:14:53.342Z,38.53
2017-11-10T03:17:21.206Z,35.03
2017-11-10T03:19:49.056Z,37.40
2017-11-10T03:22:16.907Z,36.20
2017-11-10T03:24:44.734Z,36.87
2017-11-10T03:27:12.561Z,34.63
2017-11-10T03:29:40.414Z,36.60
2017-11-10T03:32:08.231Z,34.83
2017-11-10T03:34:36.057Z,36.00
2017-11-10T03:37:03.894Z,36.87
2017-11-10T03:39:31.754Z,35.07
2017-11-10T03:41:59.574Z,38.30
2017-11-10T03:44:27.421Z,28.40
2017-11-10T03:46:55.249Z,30.37
2017-11-10T03:49:23.105Z,35.97
2017-11-10T03:51:50.949Z,28.73
2017-11-10T03:54:18.836Z,28.30
2017-11-10T03:56:46.670Z,36.27
2017-11-10T03:59:15.266Z,32.57
2017-11-10T04:01:43.096Z,36.13
2017-11-10T04:04:10.938Z,38.10
2017-11-10T04:06:38.787Z,26.00
2017-11-10T04:09:06.623Z,36.10
2017-11-10T04:11:34.473Z,35.87
2017-11-10T04:14:02.320Z,24.90
2017-11-10T04:16:30.152Z,35.27
2017-11-10T04:18:58.002Z,35.43
2017-11-10T04:21:25.841Z,35.03
2017-11-10T04:23:53.695Z,26.73
2017-11-10T04:26:21.518Z,35.13
2017-11-10T04:28:49.345Z,34.00
2017-11-10T04:31:17.178Z,28.13
2017-11-10T04:33:45.021Z,32.73
2017-11-10T04:36:12.889Z,31.50
2017-11-10T04:38:40.732Z,34.00
2017-11-10T04:41:08.583Z,33.37
2017-11-10T04:43:36.414Z,38.90
2017-11-10T04:46:04.254Z,35.93
2017-11-10T04:48:32.083Z,38.50
2017-11-10T04:50:59.902Z,37.83
2017-11-10T04:53:27.725Z,27.60
2017-11-10T04:55:55.553Z,25.77
2017-11-10T04:58:23.398Z,36.00
2017-11-10T05:00:51.224Z,37.23
2017-11-10T05:03:19.050Z,35.37
2017-11-10T05:05:46.915Z,32.13
2017-11-10T05:08:14.761Z,33.63
2017-11-10T05:10:42.592Z,32.37
2017-11-10T05:13:10.448Z,35.30
2017-11-10T05:15:38.292Z,34.37
2017-11-10T05:18:06.121Z,36.20
2017-11-10T05:20:33.946Z,26.03
2017-11-10T05:23:01.785Z,35.77
2017-11-10T05:25:29.622Z,24.70
2017-11-10T05:27:57.506Z,29.00
2017-11-10T05:30:25.356Z,33.60
2017-11-10T05:32:53.224Z,34.40
2017-11-10T05:35:21.063Z,32.90
2017-11-10T05:37:48.897Z,31.93
2017-11-10T05:40:16.730Z,28.77
2017-11-10T05:42:44.571Z,35.47
2017-11-10T05:45:12.432Z,34.73
2017-11-10T05:47:40.274Z,35.50
2017-11-10T05:50:08.106Z,28.77
2017-11-10T05:52:35.959Z,29.20
2017-11-10T05:55:03.822Z,32.53
2017-11-10T05:57:31.649Z,33.40
2017-11-10T05:59:59.498Z,36.10
2017-11-10T06:02:27.360Z,35.30
2017-11-10T06:04:55.195Z,35.90
2017-11-10T06:07:23.036Z,34.97
2017-11-10T06:09:50.857Z,29.80
2017-11-10T06:12:18.674Z,30.33
2017-11-10T06:14:46.531Z,31.60
2017-11-10T06:17:14.362Z,33.97
2017-11-10T06:19:42.197Z,29.63
2017-11-10T06:22:10.033Z,32.53
2017-11-10T06:24:37.879Z,26.90
2017-11-10T06:27:05.711Z,27.03
2017-11-10T06:29:33.545Z,33.27
2017-11-10T06:32:01.437Z,24.67
2017-11-10T06:34:29.279Z,35.10
2017-11-10T06:36:57.099Z,34.17
2017-11-10T06:39:24.950Z,31.47
2017-11-10T06:41:52.885Z,31.90
2017-11-10T06:44:20.750Z,22.50
2017-11-10T06:46:48.602Z,32.37
2017-11-10T06:49:16.452Z,34.40
2017-11-10T06:51:44.285Z,36.10
2017-11-10T06:54:12.135Z,24.10
2017-11-10T06:56:42.236Z,36.80
2017-11-10T06:59:10.106Z,35.77
2017-11-10T07:01:37.971Z,26.50
2017-11-10T07:04:05.829Z,35.50
2017-11-10T07:06:33.663Z,33.70
2017-11-10T07:09:01.550Z,37.37
2017-11-10T07:11:29.409Z,34.30
2017-11-10T07:13:57.260Z,35.40
2017-11-10T07:16:25.100Z,23.80
2017-11-10T07:18:52.921Z,34.97
2017-11-10T07:21:20.781Z,34.90
2017-11-10T07:23:48.593Z,38.27
2017-11-10T07:26:16.419Z,34.87
2017-11-10T07:28:44.237Z,35.17
2017-11-10T07:31:12.077Z,32.70
2017-11-10T07:33:39.909Z,23.10
2017-11-10T07:36:07.738Z,23.90
2017-11-10T07:38:35.610Z,31.83
2017-11-10T07:41:04.376Z,35.80
2017-11-10T07:43:32.200Z,38.47
2017-11-10T07:46:00.041Z,34.17
2017-11-10T07:48:27.876Z,36.23
2017-11-10T07:50:55.715Z,35.20
2017-11-10T07:53:23.531Z,30.10
2017-11-10T07:55:51.382Z,33.47
2017-11-10T07:58:19.217Z,36.17
2017-11-10T08:00:47.066Z,34.50
2017-11-10T08:03:14.894Z,32.70
2017-11-10T08:05:42.756Z,35.40
2017-11-10T08:08:10.590Z,34.30
2017-11-10T08:10:38.454Z,34.50
2017-11-10T08:16:08.112Z,29.30
2017-11-10T08:21:38.683Z,25.33
2017-11-10T08:24:11.358Z,33.17
2017-11-10T08:29:58.499Z,29.17
2017-11-10T08:38:14.519Z,31.07
2017-11-10T08:43:35.081Z,23.50
2017-11-10T09:12:55.343Z,34.73
2017-11-10T09:15:38.855Z,23.17
2017-11-10T09:18:06.695Z,34.30
2017-11-10T09:20:34.547Z,29.13
2017-11-10T09:23:02.403Z,35.33
2017-11-10T09:25:30.251Z,32.33
2017-11-10T09:28:13.096Z,29.37
2017-11-10T09:30:56.838Z,34.60
2017-11-10T09:36:42.046Z,20.63
2017-11-10T09:42:06.145Z,30.57
2017-11-10T09:50:39.887Z,32.93
2017-11-10T10:07:49.700Z,30.70
2017-11-10T10:10:32.890Z,26.57
2017-11-10T10:13:06.782Z,21.50
2017-11-10T10:15:40.919Z,18.07
2017-11-10T10:18:14.979Z,21.30
2017-11-10T10:20:45.733Z,24.90
2017-11-10T10:23:13.583Z,17.87
2017-11-10T10:25:42.418Z,19.77
2017-11-10T10:28:11.490Z,17.77
2017-11-10T10:30:39.958Z,21.63
2017-11-10T10:33:08.692Z,18.23
2017-11-10T10:35:37.199Z,23.10
2017-11-10T10:38:05.126Z,23.80
2017-11-10T10:40:33.062Z,22.63
2017-11-10T10:43:00.926Z,23.43
2017-11-10T10:45:30.565Z,26.90
2017-11-10T10:47:58.606Z,16.37
2017-11-10T10:50:26.463Z,24.97
2017-11-10T10:52:54.301Z,25.20
2017-11-10T10:55:22.134Z,22.37
2017-11-10T10:57:50.011Z,18.77
2017-11-10T11:00:17.868Z,17.60
2017-11-10T11:02:45.711Z,20.33
2017-11-10T11:05:13.567Z,14.60
2017-11-10T11:07:41.417Z,20.77
2017-11-10T11:10:09.259Z,21.63
2017-11-10T11:12:37.094Z,16.80
2017-11-10T11:15:04.938Z,21.00
2017-11-10T11:17:32.834Z,19.50
2017-11-10T11:20:00.671Z,19.47
2017-11-10T11:22:28.506Z,18.20
2017-11-10T11:24:56.352Z,22.20
2017-11-10T11:27:24.222Z,14.40
2017-11-10T11:29:52.062Z,17.23
2017-11-10T11:32:19.910Z,9.43
2017-11-10T11:34:47.746Z,17.97
2017-11-10T11:37:15.584Z,14.80
2017-11-10T11:39:43.434Z,16.90
2017-11-10T11:42:11.292Z,15.70
2017-11-10T11:44:39.158Z,14.30
2017-11-10T11:47:06.977Z,13.37
2017-11-10T11:49:34.818Z,14.37
2017-11-10T11:52:02.710Z,16.60
2017-11-10T11:54:30.560Z,10.83
2017-11-10T11:56:58.420Z,17.00
2017-11-10T11:59:26.338Z,16.00
2017-11-10T12:02:02.983Z,17.63
2017-11-10T12:07:25.909Z,13.10
2017-11-10T12:09:53.756Z,14.83
2017-11-10T12:12:21.585Z,14.73
2017-11-10T12:14:49.438Z,15.27
2017-11-10T12:17:17.282Z,16.20
2017-11-10T12:19:45.134Z,13.43
2017-11-10T12:22:12.974Z,11.17
2017-11-10T12:24:40.854Z,18.70
2017-11-10T12:27:08.685Z,15.47
2017-11-10T12:29:36.518Z,15.40
2017-11-10T12:32:04.369Z,16.23
2017-11-10T12:34:32.248Z,13.60
2017-11-10T12:37:00.106Z,14.40
2017-11-10T12:39:27.965Z,14.47
2017-11-10T12:41:55.805Z,14.10
2017-11-10T12:44:42.729Z,14.70
2017-11-10T12:47:11.067Z,13.93
2017-11-10T12:49:39.024Z,14.57
2017-11-10T12:52:06.891Z,14.57
2017-11-10T12:54:36.310Z,12.50
2017-11-10T12:57:04.625Z,15.03
2017-11-10T12:59:32.702Z,13.50
2017-11-10T13:02:00.602Z,10.57
2017-11-10T13:04:28.451Z,7.57
2017-11-10T13:06:56.346Z,6.57
2017-11-10T13:09:24.177Z,5.07
2017-11-10T13:11:52.076Z,5.53
2017-11-10T13:14:19.926Z,5.80
2017-11-10T13:16:47.831Z,6.13
2017-11-10T13:19:15.697Z,4.30
2017-11-10T13:21:43.573Z,4.47
2017-11-10T13:24:12.025Z,3.20
2017-11-10T13:26:39.897Z,2.73
2017-11-10T13:29:07.738Z,6.60
2017-11-10T13:31:35.549Z,5.47
2017-11-10T13:34:03.562Z,6.20
2017-11-10T13:36:31.447Z,5.37
2017-11-10T13:38:59.302Z,1.90
2017-11-10T13:41:27.148Z,4.27
2017-11-10T13:43:55.002Z,1.83
2017-11-10T13:46:22.850Z,2.00
2017-11-10T13:48:50.691Z,2.57
2017-11-10T13:51:18.562Z,1.63
2017-11-10T13:53:46.434Z,2.30
2017-11-10T13:56:14.297Z,2.17
2017-11-10T13:58:42.168Z,2.60
2017-11-10T14:01:10.006Z,3.77
2017-11-10T14:03:37.826Z,2.90
2017-11-10T14:06:05.703Z,2.97
2017-11-10T14:08:33.591Z,14.10
2017-11-10T14:11:01.427Z,2.97
2017-11-10T14:13:37.673Z,2.80
2017-11-10T14:16:05.505Z,3.03
2017-11-10T14:18:33.337Z,3.50
2017-11-10T14:21:01.201Z,3.47
2017-11-10T14:23:29.040Z,3.30
2017-11-10T14:25:56.882Z,4.00
2017-11-10T14:28:25.846Z,3.10
2017-11-10T14:30:53.686Z,3.00
2017-11-10T14:33:21.558Z,4.60
2017-11-10T14:35:49.428Z,2.90
2017-11-10T14:38:17.310Z,2.93
2017-11-10T14:40:45.178Z,2.23
2017-11-10T14:43:12.995Z,3.20
2017-11-10T14:45:54.833Z,3.00
2017-11-10T14:48:23.031Z,3.57
2017-11-10T14:50:51.517Z,3.20
2017-11-10T14:53:19.529Z,2.77
2017-11-10T14:55:47.519Z,3.83
2017-11-10T14:58:15.456Z,2.50
2017-11-10T15:00:43.306Z,3.07
2017-11-10T15:03:11.145Z,3.43
2017-11-10T15:05:38.991Z,3.53
2017-11-10T15:08:06.817Z,4.37
2017-11-10T15:10:34.650Z,4.17
2017-11-10T15:13:02.507Z,5.07
2017-11-10T15:15:30.368Z,3.00
2017-11-10T15:17:58.202Z,5.80
2017-11-10T15:20:26.048Z,5.40
2017-11-10T15:22:53.870Z,3.97
2017-11-10T15:25:33.185Z,4.10
2017-11-10T15:28:01.009Z,3.80
2017-11-10T15:30:28.853Z,4.03
2017-11-10T15:32:56.718Z,5.43
2017-11-10T15:35:31.764Z,4.20
2017-11-10T15:37:59.690Z,5.10
2017-11-10T15:40:27.561Z,4.43
2017-11-10T15:42:55.423Z,4.57
2017-11-10T15:45:23.350Z,5.70
2017-11-10T15:47:51.290Z,4.50
2017-11-10T15:50:19.139Z,5.97
2017-11-10T15:52:46.998Z,5.43
2017-11-10T15:55:21.379Z,4.97
2017-11-10T15:57:49.246Z,4.77
2017-11-10T16:00:17.112Z,4.80
2017-11-10T16:02:45.019Z,6.37
2017-11-10T16:05:14.486Z,4.70
2017-11-10T16:07:42.317Z,5.37
2017-11-10T16:10:10.156Z,3.30
2017-11-10T16:12:37.994Z,3.80
2017-11-10T16:15:05.850Z,5.03
2017-11-10T16:17:33.673Z,5.00
2017-11-10T16:20:01.482Z,4.60
2017-11-10T16:22:29.343Z,4.23
2017-11-10T16:24:57.218Z,3.70
2017-11-10T16:27:25.072Z,3.37
2017-11-10T16:29:52.914Z,3.20
2017-11-10T16:32:20.737Z,2.23
2017-11-10T16:34:48.550Z,2.23
2017-11-10T16:37:16.391Z,2.97
2017-11-10T16:39:44.258Z,2.70
2017-11-10T16:42:12.089Z,2.80
2017-11-10T16:44:39.931Z,2.37
2017-11-10T16:47:07.873Z,2.13
2017-11-10T16:49:35.738Z,3.17
2017-11-10T16:52:03.604Z,2.33
2017-11-10T16:54:31.595Z,1.80
2017-11-10T16:56:59.491Z,2.50
2017-11-10T16:59:27.365Z,2.33
2017-11-10T17:01:55.197Z,1.80
2017-11-10T17:04:23.036Z,2.00
2017-11-10T17:06:50.891Z,1.73
2017-11-10T17:09:18.772Z,1.53
2017-11-10T17:11:46.670Z,2.37
2017-11-10T17:14:14.570Z,1.93
2017-11-10T17:16:42.642Z,2.40
2017-11-10T17:19:10.973Z,1.83
2017-11-10T17:21:39.187Z,2.80
2017-11-10T17:24:07.118Z,2.28
2017-11-10T17:26:34.948Z,1.60
2017-11-10T17:29:02.763Z,2.93
2017-11-10T17:31:30.591Z,2.97
2017-11-10T17:33:58.429Z,3.35
2017-11-10T17:36:26.253Z,3.25
2017-11-10T17:38:54.070Z,3.40
2017-11-10T17:41:21.898Z,1.83
2017-11-10T17:43:49.755Z,2.35
2017-11-10T17:46:17.590Z,2.95
2017-11-10T17:48:45.429Z,3.42
2017-11-10T17:51:13.258Z,2.90
2017-11-10T17:53:41.085Z,2.90
2017-11-10T17:56:08.930Z,3.08
2017-11-10T17:58:36.767Z,3.58
2017-11-10T18:01:04.712Z,2.47
2017-11-10T18:03:32.672Z,5.18
2017-11-10T18:06:00.521Z,4.75
2017-11-10T18:08:28.363Z,4.90
2017-11-10T18:10:56.203Z,5.10
2017-11-10T18:13:24.068Z,4.82
2017-11-10T18:15:51.907Z,4.82
2017-11-10T18:18:19.725Z,5.50
2017-11-10T18:20:47.580Z,5.32
2017-11-10T18:23:15.434Z,5.37
2017-11-10T18:25:43.264Z,4.37
2017-11-10T18:28:11.121Z,5.13
2017-11-10T18:30:38.995Z,4.90
2017-11-10T18:33:06.836Z,4.30
2017-11-10T18:35:34.670Z,4.03
2017-11-10T18:38:02.722Z,3.62
2017-11-10T18:40:30.583Z,4.82
2017-11-10T18:42:58.442Z,3.45
2017-11-10T18:45:26.305Z,3.83
2017-11-10T18:47:54.164Z,4.15
2017-11-10T18:50:22.010Z,3.15
2017-11-10T18:52:49.852Z,4.10
2017-11-10T18:55:20.654Z,6.37
2017-11-10T18:57:48.501Z,3.80
2017-11-10T19:00:16.314Z,3.25
2017-11-10T19:02:44.156Z,3.65
2017-11-10T19:05:11.982Z,4.25
2017-11-10T19:07:39.809Z,5.20
2017-11-10T19:10:07.654Z,5.93
2017-11-10T19:12:35.482Z,3.90
2017-11-10T19:15:03.290Z,5.45
2017-11-10T19:17:31.113Z,6.65
2017-11-10T19:19:58.932Z,4.03
2017-11-10T19:22:26.745Z,4.72
2017-11-10T19:24:54.566Z,5.07
2017-11-10T19:27:22.391Z,4.90
2017-11-10T19:29:50.205Z,4.57
2017-11-10T19:32:18.062Z,5.78
2017-11-10T19:34:45.895Z,8.15
2017-11-10T19:37:13.753Z,9.32
2017-11-10T19:39:41.574Z,10.98
2017-11-10T19:42:09.397Z,8.82
2017-11-10T19:44:37.235Z,7.07
2017-11-10T19:47:05.065Z,8.25
2017-11-10T19:49:32.921Z,4.35
2017-11-10T19:52:00.750Z,4.12
2017-11-10T19:54:28.599Z,3.28
2017-11-10T19:56:56.422Z,2.65
2017-11-10T19:59:24.285Z,3.47
2017-11-10T20:01:52.134Z,3.12
2017-11-10T20:04:19.978Z,3.65
2017-11-10T20:06:47.805Z,4.35
2017-11-10T20:09:15.632Z,2.60
2017-11-10T20:11:43.439Z,3.20
2017-11-10T20:14:11.282Z,1.48
2017-11-10T20:16:39.115Z,3.80
2017-11-10T20:19:06.978Z,2.95
2017-11-10T20:21:34.811Z,1.60
2017-11-10T20:24:02.654Z,3.00
2017-11-10T20:26:30.476Z,2.30
2017-11-10T20:28:58.338Z,3.78
2017-11-10T20:31:26.177Z,2.85
2017-11-10T20:33:54.000Z,2.97
2017-11-10T20:36:21.851Z,2.70
2017-11-10T20:38:49.657Z,1.77
2017-11-10T20:41:17.505Z,3.05
2017-11-10T20:43:45.313Z,2.25
2017-11-10T20:46:13.142Z,1.60
2017-11-10T20:48:40.979Z,4.60
2017-11-10T20:51:08.810Z,2.20
2017-11-10T20:53:36.667Z,3.35
2017-11-10T20:56:04.493Z,2.35
2017-11-10T20:58:32.301Z,1.50
2017-11-10T21:01:00.138Z,1.92
2017-11-10T21:03:27.962Z,2.45
2017-11-10T21:05:55.790Z,2.58
2017-11-10T21:08:23.638Z,3.05
2017-11-10T21:10:51.458Z,1.92
2017-11-10T21:13:19.286Z,3.17
2017-11-10T21:15:47.105Z,3.37
2017-11-10T21:18:14.930Z,2.10
2017-11-10T21:20:42.794Z,3.05
2017-11-10T21:23:10.657Z,1.87
2017-11-10T21:25:38.505Z,2.80
2017-11-10T21:28:06.361Z,2.08
2017-11-10T21:30:34.226Z,2.60
2017-11-10T21:33:02.063Z,3.10
2017-11-10T21:35:29.902Z,2.90
2017-11-10T21:37:57.747Z,1.73
2017-11-10T21:40:25.594Z,2.60
2017-11-10T21:42:53.409Z,2.58
2017-11-10T21:45:21.244Z,2.08
2017-11-10T21:47:49.120Z,2.10
2017-11-10T21:50:16.974Z,3.03
2017-11-10T21:52:44.785Z,2.22
2017-11-10T21:55:12.624Z,2.35
2017-11-10T21:57:40.448Z,2.47
2017-11-10T22:00:08.266Z,3.95
2017-11-10T22:02:36.126Z,2.75
2017-11-10T22:05:03.965Z,3.35
2017-11-10T22:07:31.813Z,3.10
2017-11-10T22:09:59.645Z,2.72
2017-11-10T22:12:27.469Z,2.42
2017-11-10T22:14:55.316Z,3.20
2017-11-10T22:17:23.198Z,3.60
2017-11-10T22:19:51.013Z,2.30
2017-11-10T22:22:18.834Z,2.55
2017-11-10T22:24:46.674Z,3.10
2017-11-10T22:27:14.618Z,3.30
2017-11-10T22:29:42.461Z,3.85
2017-11-10T22:32:10.282Z,4.10
2017-11-10T22:34:38.118Z,2.40
2017-11-10T22:37:05.929Z,3.17
2017-11-10T22:39:33.938Z,3.85
2017-11-10T22:42:01.797Z,4.53
2017-11-10T22:44:29.621Z,2.25
2017-11-10T22:46:57.449Z,4.43
2017-11-10T22:49:25.298Z,2.22
2017-11-10T22:51:53.141Z,2.62
2017-11-10T22:54:20.966Z,3.12
2017-11-10T22:56:48.805Z,2.92
2017-11-10T22:59:16.624Z,2.50
2017-11-10T23:01:44.455Z,1.90
2017-11-10T23:04:12.269Z,2.22
2017-11-10T23:06:40.126Z,1.10
2017-11-10T23:09:07.954Z,2.30
2017-11-10T23:11:35.797Z,2.87
2017-11-10T23:14:03.646Z,2.30
2017-11-10T23:16:31.453Z,3.00
2017-11-10T23:18:59.298Z,2.25
2017-11-10T23:21:27.117Z,2.30
2017-11-10T23:23:54.945Z,1.95
2017-11-10T23:26:22.770Z,1.73
2017-11-10T23:28:50.593Z,3.03
2017-11-10T23:31:18.391Z,2.40
2017-11-10T23:33:46.227Z,2.10
2017-11-10T23:36:14.049Z,2.65
2017-11-10T23:38:41.879Z,2.85
2017-11-10T23:41:09.716Z,2.95
2017-11-10T23:43:37.563Z,2.80
2017-11-10T23:46:05.389Z,2.80
2017-11-10T23:48:33.253Z,2.83
2017-11-10T23:51:01.065Z,2.33
2017-11-10T23:53:28.889Z,2.62
2017-11-10T23:55:56.699Z,1.65
2017-11-10T23:58:24.534Z,1.33
